createdAt,value
2022-11-18T00:01:35.029Z,95523.09
2022-11-18T00:04:01.938Z,95530.00
2022-11-18T00:06:30.246Z,95527.75
2022-11-18T00:08:58.815Z,95521.91
2022-11-18T00:11:45.473Z,95531.19
2022-11-18T00:14:21.403Z,95521.78
2022-11-18T00:17:02.560Z,95517.75
2022-11-18T00:19:31.590Z,95523.56
2022-11-18T00:21:58.930Z,95512.78
2022-11-18T00:24:26.440Z,95515.38
2022-11-18T00:26:53.592Z,95499.81
2022-11-18T00:29:20.524Z,95501.84
2022-11-18T00:31:48.069Z,95496.38
2022-11-18T00:34:17.604Z,95501.97
2022-11-18T00:36:45.691Z,95502.56
2022-11-18T00:39:14.354Z,95506.00
2022-11-18T00:41:59.527Z,95507.41
2022-11-18T00:44:26.150Z,95507.19
2022-11-18T00:46:53.632Z,95505.88
2022-11-18T00:49:20.137Z,95493.63
2022-11-18T00:51:46.765Z,95482.94
2022-11-18T00:54:13.445Z,95483.50
2022-11-18T00:56:39.873Z,95478.41
2022-11-18T00:59:06.490Z,95493.28
2022-11-18T01:01:33.095Z,95496.03
2022-11-18T01:03:59.880Z,95485.66
2022-11-18T01:06:26.671Z,95492.00
2022-11-18T01:08:53.269Z,95492.44
2022-11-18T01:11:38.398Z,95487.69
2022-11-18T01:14:05.015Z,95490.19
2022-11-18T01:16:31.575Z,95493.03
2022-11-18T01:18:58.310Z,95487.19
2022-11-18T01:21:24.960Z,95485.53
2022-11-18T01:23:51.462Z,95480.16
2022-11-18T01:26:18.259Z,95479.81
2022-11-18T01:28:45.460Z,95469.34
2022-11-18T01:31:17.812Z,95464.84
2022-11-18T01:33:44.954Z,95468.97
2022-11-18T01:36:16.743Z,95460.19
2022-11-18T01:38:43.248Z,95465.41
2022-11-18T01:41:09.797Z,95462.69
2022-11-18T01:44:08.486Z,95460.19
2022-11-18T01:46:34.971Z,95446.78
2022-11-18T01:49:08.848Z,95454.84
2022-11-18T01:51:51.961Z,95443.03
2022-11-18T01:54:24.000Z,95435.13
2022-11-18T01:56:53.945Z,95427.63
2022-11-18T01:59:31.118Z,95426.53
2022-11-18T02:02:00.988Z,95441.41
2022-11-18T02:04:27.725Z,95432.88
2022-11-18T02:06:55.318Z,95426.94
2022-11-18T02:09:22.671Z,95421.91
2022-11-18T02:11:54.078Z,95418.13
2022-11-18T02:14:25.400Z,95411.22
2022-11-18T02:17:08.173Z,95405.03
2022-11-18T02:19:43.458Z,95398.41
2022-11-18T02:22:28.678Z,95400.28
2022-11-18T02:25:12.883Z,95391.44
2022-11-18T02:28:10.030Z,95406.78
2022-11-18T02:30:57.302Z,95417.34
2022-11-18T02:33:33.621Z,95422.56
2022-11-18T02:36:23.513Z,95418.53
2022-11-18T02:38:56.425Z,95417.78
2022-11-18T02:41:29.647Z,95423.03
2022-11-18T02:44:04.692Z,95422.22
2022-11-18T02:46:38.241Z,95424.56
2022-11-18T02:49:10.910Z,95427.69
2022-11-18T02:51:39.600Z,95424.81
2022-11-18T02:54:09.181Z,95423.75
2022-11-18T02:56:36.792Z,95421.81
2022-11-18T02:59:04.467Z,95427.44
2022-11-18T03:01:34.184Z,95428.38
2022-11-18T03:04:00.939Z,95429.81
2022-11-18T03:06:33.862Z,95426.97
2022-11-18T03:09:22.774Z,95428.94
2022-11-18T03:12:17.072Z,95419.19
2022-11-18T03:15:03.107Z,95424.50
2022-11-18T03:17:55.635Z,95422.75
2022-11-18T03:20:38.148Z,95418.72
2022-11-18T03:23:11.715Z,95421.34
2022-11-18T03:25:47.698Z,95430.25
2022-11-18T03:28:23.000Z,95424.75
2022-11-18T03:31:14.856Z,95427.38
2022-11-18T03:33:48.055Z,95432.88
2022-11-18T03:36:16.803Z,95415.38
2022-11-18T03:38:50.462Z,95421.56
2022-11-18T03:41:19.187Z,95418.94
2022-11-18T03:43:51.696Z,95416.31
2022-11-18T03:46:42.465Z,95422.53
2022-11-18T03:49:14.584Z,95415.88
2022-11-18T03:51:50.898Z,95413.38
2022-11-18T03:54:24.601Z,95417.41
2022-11-18T03:57:02.593Z,95423.97
2022-11-18T04:00:02.788Z,95410.88
2022-11-18T04:02:30.028Z,95413.75
2022-11-18T04:04:59.749Z,95406.59
2022-11-18T04:07:39.172Z,95407.59
2022-11-18T04:10:14.669Z,95412.69
2022-11-18T04:12:46.251Z,95413.75
2022-11-18T04:15:12.991Z,95414.09
2022-11-18T04:17:42.321Z,95414.09
2022-11-18T04:20:21.298Z,95416.84
2022-11-18T04:22:47.877Z,95417.66
2022-11-18T04:25:14.876Z,95421.94
2022-11-18T04:27:41.402Z,95424.91
2022-11-18T04:30:08.794Z,95428.13
2022-11-18T04:32:35.491Z,95423.84
2022-11-18T04:35:02.271Z,95431.81
2022-11-18T04:37:28.749Z,95434.28
2022-11-18T04:39:55.250Z,95426.91
2022-11-18T04:42:21.720Z,95432.03
2022-11-18T04:44:48.188Z,95434.28
2022-11-18T04:47:14.663Z,95441.91
2022-11-18T04:49:41.276Z,95439.41
2022-11-18T04:52:07.902Z,95445.47
2022-11-18T04:54:34.425Z,95444.28
2022-11-18T04:57:00.922Z,95445.00
2022-11-18T04:59:29.276Z,95454.75
2022-11-18T05:01:57.008Z,95453.91
2022-11-18T05:04:26.792Z,95454.88
2022-11-18T05:06:54.122Z,95467.69
2022-11-18T05:09:21.267Z,95467.72
2022-11-18T05:12:06.808Z,95468.53
2022-11-18T05:14:33.674Z,95478.31
2022-11-18T05:17:01.990Z,95480.06
2022-11-18T05:19:28.520Z,95483.38
2022-11-18T05:21:55.459Z,95482.00
2022-11-18T05:24:24.198Z,95485.34
2022-11-18T05:26:52.006Z,95486.03
2022-11-18T05:29:19.847Z,95489.50
2022-11-18T05:31:47.497Z,95495.88
2022-11-18T05:34:14.954Z,95500.91
2022-11-18T05:36:41.915Z,95503.50
2022-11-18T05:39:08.581Z,95508.38
2022-11-18T05:41:53.562Z,95510.03
2022-11-18T05:44:20.067Z,95518.94
2022-11-18T05:46:46.547Z,95520.84
2022-11-18T05:49:13.051Z,95524.28
2022-11-18T05:51:39.631Z,95527.16
2022-11-18T05:54:09.721Z,95550.59
2022-11-18T05:56:37.739Z,95543.78
2022-11-18T05:59:05.755Z,95540.13
2022-11-18T06:01:46.861Z,95548.34
2022-11-18T06:04:16.255Z,95549.78
2022-11-18T06:06:45.587Z,95531.34
2022-11-18T06:09:13.620Z,95523.41
2022-11-18T06:11:47.725Z,95523.66
2022-11-18T06:14:19.778Z,95524.84
2022-11-18T06:16:51.966Z,95516.28
2022-11-18T06:19:19.370Z,95520.13
2022-11-18T06:21:46.982Z,95524.03
2022-11-18T06:24:14.171Z,95514.66
2022-11-18T06:26:41.748Z,95517.28
2022-11-18T06:29:12.443Z,95507.41
2022-11-18T06:31:38.962Z,95521.19
2022-11-18T06:34:05.491Z,95518.97
2022-11-18T06:36:31.982Z,95517.63
2022-11-18T06:39:03.643Z,95520.59
2022-11-18T06:41:30.507Z,95515.97
2022-11-18T06:43:57.050Z,95524.06
2022-11-18T06:46:42.124Z,95516.09
2022-11-18T06:49:08.896Z,95517.97
2022-11-18T06:51:35.824Z,95525.75
2022-11-18T06:54:07.492Z,95524.88
2022-11-18T06:56:55.001Z,95526.34
2022-11-18T06:59:23.941Z,95526.66
2022-11-18T07:01:51.856Z,95526.22
2022-11-18T07:04:18.325Z,95531.91
2022-11-18T07:06:44.823Z,95522.66
2022-11-18T07:09:11.427Z,95526.09
2022-11-18T07:11:40.383Z,95525.25
2022-11-18T07:14:08.526Z,95537.50
2022-11-18T07:16:36.612Z,95540.03
2022-11-18T07:19:09.098Z,95530.97
2022-11-18T07:21:35.678Z,95527.63
2022-11-18T07:24:06.051Z,95534.41
2022-11-18T07:26:33.322Z,95532.25
2022-11-18T07:28:59.890Z,95533.81
2022-11-18T07:31:26.398Z,95529.25
2022-11-18T07:33:55.893Z,95529.72
2022-11-18T07:36:26.498Z,95532.94
2022-11-18T07:38:56.155Z,95529.84
2022-11-18T07:41:24.714Z,95532.22
2022-11-18T07:43:56.205Z,95531.59
2022-11-18T07:46:28.846Z,95536.09
2022-11-18T07:48:57.868Z,95527.41
2022-11-18T07:51:30.201Z,95529.16
2022-11-18T07:53:56.937Z,95528.66
2022-11-18T07:56:24.472Z,95535.63
2022-11-18T07:58:55.756Z,95539.03
2022-11-18T08:01:29.010Z,95542.66
2022-11-18T08:03:55.836Z,95542.03
2022-11-18T08:06:22.307Z,95548.78
2022-11-18T08:08:49.474Z,95544.97
2022-11-18T08:11:22.189Z,95533.34
2022-11-18T08:13:49.243Z,95545.16
2022-11-18T08:16:18.076Z,95542.13
2022-11-18T08:18:45.031Z,95543.38
2022-11-18T08:21:12.445Z,95543.13
2022-11-18T08:23:41.891Z,95555.31
2022-11-18T08:26:11.864Z,95553.88
2022-11-18T08:28:38.601Z,95558.88
2022-11-18T08:31:26.250Z,95564.59
2022-11-18T08:33:56.960Z,95568.97
2022-11-18T08:36:26.294Z,95572.44
2022-11-18T08:38:52.846Z,95572.31
2022-11-18T08:41:25.458Z,95580.13
2022-11-18T08:43:51.951Z,95577.09
2022-11-18T08:46:18.440Z,95581.44
2022-11-18T08:48:44.938Z,95588.47
2022-11-18T08:51:12.992Z,95578.38
2022-11-18T08:53:39.826Z,95576.59
2022-11-18T08:56:06.582Z,95576.03
2022-11-18T08:58:33.165Z,95574.56
2022-11-18T09:01:05.773Z,95579.66
2022-11-18T09:03:32.287Z,95577.91
2022-11-18T09:06:17.663Z,95584.13
2022-11-18T09:08:44.966Z,95575.16
2022-11-18T09:11:16.774Z,95575.53
2022-11-18T09:14:20.458Z,95578.88
2022-11-18T09:16:32.490Z,95588.50
2022-11-18T09:19:04.936Z,95592.25
2022-11-18T09:21:40.936Z,95591.75
2022-11-18T09:24:08.361Z,95598.16
2022-11-18T09:26:35.352Z,95595.84
2022-11-18T09:29:01.878Z,95606.41
2022-11-18T09:31:28.484Z,95606.41
2022-11-18T09:33:54.992Z,95607.38
2022-11-18T09:36:25.728Z,95611.25
2022-11-18T09:38:53.635Z,95614.91
2022-11-18T09:41:46.146Z,95616.84
2022-11-18T09:44:36.924Z,95618.78
2022-11-18T09:47:24.874Z,95616.13
2022-11-18T09:49:52.269Z,95627.78
2022-11-18T09:52:35.975Z,95626.75
2022-11-18T09:55:12.143Z,95628.72
2022-11-18T09:57:42.268Z,95641.59
2022-11-18T10:00:20.197Z,95639.91
2022-11-18T10:03:04.828Z,95635.75
2022-11-18T10:05:46.579Z,95644.91
2022-11-18T10:08:26.991Z,95644.44
2022-11-18T10:11:13.809Z,95650.25
2022-11-18T10:14:01.486Z,95645.94
2022-11-18T10:16:39.389Z,95654.00
2022-11-18T10:19:20.641Z,95656.75
2022-11-18T10:22:41.340Z,95664.09
2022-11-18T10:25:15.714Z,95663.56
2022-11-18T10:27:44.857Z,95663.78
2022-11-18T10:30:14.118Z,95666.22
2022-11-18T10:33:04.563Z,95669.84
2022-11-18T10:35:38.882Z,95664.38
2022-11-18T10:38:13.269Z,95665.31
2022-11-18T10:40:58.408Z,95658.31
2022-11-18T10:43:49.934Z,95659.59
2022-11-18T10:46:27.381Z,95663.66
2022-11-18T10:49:08.983Z,95663.25
2022-11-18T10:52:10.202Z,95655.75
2022-11-18T10:54:37.810Z,95660.34
2022-11-18T10:57:24.778Z,95659.34
2022-11-18T10:59:58.158Z,95653.56
2022-11-18T11:02:54.078Z,95646.75
2022-11-18T11:05:23.280Z,95649.09
2022-11-18T11:08:29.097Z,95654.16
2022-11-18T11:10:57.800Z,95651.91
2022-11-18T11:13:28.109Z,95651.78
2022-11-18T11:15:58.146Z,95647.72
2022-11-18T11:18:41.505Z,95644.69
2022-11-18T11:21:16.494Z,95657.09
2022-11-18T11:23:44.173Z,95650.38
2022-11-18T11:29:39.836Z,95654.13
2022-11-18T11:32:19.159Z,95656.69
2022-11-18T11:35:10.310Z,95662.13
2022-11-18T11:37:58.298Z,95662.66
2022-11-18T11:40:33.531Z,95672.53
2022-11-18T11:43:17.691Z,95677.84
2022-11-18T11:46:18.535Z,95677.34
2022-11-18T11:48:51.037Z,95675.81
2022-11-18T11:51:33.231Z,95688.44
2022-11-18T11:54:20.264Z,95689.25
2022-11-18T11:56:59.360Z,95681.03
2022-11-18T11:59:40.868Z,95685.88
2022-11-18T12:02:32.255Z,95677.06
2022-11-18T12:05:02.528Z,95676.38
2022-11-18T12:07:33.601Z,95681.94
2022-11-18T12:10:20.789Z,95681.94
2022-11-18T12:13:01.027Z,95674.28
2022-11-18T12:15:43.109Z,95680.69
2022-11-18T12:18:28.523Z,95681.66
2022-11-18T12:20:55.288Z,95680.69
2022-11-18T12:23:29.880Z,95679.16
2022-11-18T12:26:04.274Z,95683.44
2022-11-18T12:28:41.446Z,95672.06
2022-11-18T12:31:19.821Z,95673.44
2022-11-18T12:33:47.550Z,95669.16
2022-11-18T12:36:30.763Z,95666.09
2022-11-18T12:38:58.140Z,95679.75
2022-11-18T12:42:03.134Z,95675.38
2022-11-18T12:44:30.300Z,95678.63
2022-11-18T12:47:01.097Z,95687.50
2022-11-18T12:49:27.586Z,95685.81
2022-11-18T12:52:01.687Z,95683.63
2022-11-18T12:54:39.257Z,95686.66
2022-11-18T12:57:17.798Z,95689.22
2022-11-18T12:59:44.315Z,95683.56
2022-11-18T13:02:10.750Z,95692.25
2022-11-18T13:04:44.373Z,95687.41
2022-11-18T13:07:32.190Z,95691.13
2022-11-18T13:09:59.086Z,95689.34
2022-11-18T13:12:29.208Z,95692.25
2022-11-18T13:15:14.312Z,95701.94
2022-11-18T13:17:58.824Z,95701.88
2022-11-18T13:20:27.277Z,95702.63
2022-11-18T13:23:14.780Z,95700.53
2022-11-18T13:25:45.078Z,95689.25
2022-11-18T13:28:29.692Z,95686.50
2022-11-18T13:31:22.927Z,95696.03
2022-11-18T13:33:50.287Z,95691.78
2022-11-18T13:36:19.141Z,95699.44
2022-11-18T13:38:56.852Z,95695.59
2022-11-18T13:41:24.685Z,95686.47
2022-11-18T13:43:53.953Z,95691.72
2022-11-18T13:46:22.183Z,95697.84
2022-11-18T13:48:59.243Z,95703.94
2022-11-18T13:51:26.508Z,95703.19
2022-11-18T13:53:53.063Z,95712.50
2022-11-18T13:56:24.605Z,95707.06
2022-11-18T14:01:38.349Z,95715.41
2022-11-18T14:04:08.212Z,95716.47
2022-11-18T14:06:39.875Z,95722.41
2022-11-18T14:09:18.285Z,95724.81
2022-11-18T14:12:08.487Z,95731.81
2022-11-18T14:14:37.909Z,95739.09
2022-11-18T14:17:27.685Z,95739.91
2022-11-18T14:19:59.134Z,95746.97
2022-11-18T14:22:28.523Z,95753.91
2022-11-18T14:25:01.193Z,95751.88
2022-11-18T14:27:41.361Z,95751.72
2022-11-18T14:30:36.796Z,95760.09
2022-11-18T14:33:06.005Z,95759.47
2022-11-18T14:35:34.823Z,95761.13
2022-11-18T14:38:35.342Z,95763.06
2022-11-18T14:40:55.902Z,95762.69
2022-11-18T14:43:22.979Z,95770.88
2022-11-18T14:45:50.035Z,95773.25
2022-11-18T14:48:20.495Z,95779.66
2022-11-18T14:50:48.019Z,95779.44
2022-11-18T14:53:14.984Z,95776.22
2022-11-18T14:55:41.928Z,95780.16
2022-11-18T14:58:13.764Z,95787.88
2022-11-18T15:00:42.221Z,95792.34
2022-11-18T15:03:09.479Z,95795.16
2022-11-18T15:05:36.125Z,95786.81
2022-11-18T15:08:03.147Z,95792.50
2022-11-18T15:10:30.063Z,95794.41
2022-11-18T15:12:56.609Z,95787.25
2022-11-18T15:15:23.768Z,95797.47
2022-11-18T15:21:31.650Z,95804.69
2022-11-18T15:23:58.286Z,95799.81
2022-11-18T15:30:06.168Z,95803.38
2022-11-18T15:32:32.724Z,95811.59
2022-11-18T15:34:59.218Z,95818.63
2022-11-18T15:37:25.910Z,95821.13
2022-11-18T15:44:11.750Z,95818.94
2022-11-18T16:09:14.431Z,95833.13
2022-11-18T16:22:28.087Z,95842.97
2022-11-18T16:24:54.645Z,95849.59
2022-11-18T16:44:58.821Z,95861.75
2022-11-18T16:47:44.108Z,95862.44
2022-11-18T16:50:10.828Z,95867.56
2022-11-18T16:56:10.450Z,95873.19
2022-11-18T16:58:45.688Z,95874.34
2022-11-18T17:01:23.475Z,95879.03
2022-11-18T17:10:39.365Z,95883.94
2022-11-18T17:23:32.376Z,95895.63
2022-11-18T17:44:09.785Z,95914.25
2022-11-18T17:53:16.928Z,95912.50
2022-11-18T19:12:27.785Z,95991.41
2022-11-18T19:31:45.744Z,96016.91
2022-11-18T20:39:47.895Z,96049.16
2022-11-18T21:18:40.144Z,96082.22
2022-11-18T21:31:35.682Z,96102.50
2022-11-18T21:44:20.749Z,96106.50
2022-11-18T22:01:20.467Z,96108.78
2022-11-18T22:28:44.109Z,96130.41
2022-11-18T22:40:59.832Z,96133.31
2022-11-18T22:54:09.814Z,96137.88
2022-11-18T23:26:08.995Z,96150.56
2022-11-18T23:42:57.023Z,96145.22
